createdAt,value
2022-12-29T00:00:17.587Z,9.90
2022-12-29T00:02:49.078Z,9.90
2022-12-29T00:05:17.978Z,10.00
2022-12-29T00:07:48.921Z,10.00
2022-12-29T00:10:18.159Z,10.00
2022-12-29T00:13:05.113Z,10.00
2022-12-29T00:15:46.020Z,10.00
2022-12-29T00:18:20.209Z,10.00
2022-12-29T00:21:07.241Z,10.00
2022-12-29T00:23:57.006Z,10.00
2022-12-29T00:26:44.713Z,10.00
2022-12-29T00:29:31.459Z,10.00
2022-12-29T00:32:17.445Z,10.00
2022-12-29T00:35:03.718Z,10.00
2022-12-29T00:37:48.251Z,10.00
2022-12-29T00:40:35.527Z,10.00
2022-12-29T00:43:20.924Z,10.00
2022-12-29T00:45:49.040Z,10.00
2022-12-29T00:48:37.589Z,10.10
2022-12-29T00:51:05.799Z,10.10
2022-12-29T00:53:35.335Z,10.10
2022-12-29T00:56:08.384Z,10.10
2022-12-29T00:58:36.843Z,10.10
2022-12-29T01:01:06.192Z,10.10
2022-12-29T01:03:36.366Z,10.10
2022-12-29T01:06:06.869Z,10.10
2022-12-29T01:08:35.877Z,10.10
2022-12-29T01:11:06.569Z,10.10
2022-12-29T01:16:17.171Z,10.20
2022-12-29T01:18:48.711Z,10.20
2022-12-29T01:21:19.647Z,10.20
2022-12-29T01:23:50.433Z,10.30
2022-12-29T01:29:08.475Z,10.30
2022-12-29T01:31:39.477Z,10.30
2022-12-29T01:34:22.254Z,10.30
2022-12-29T01:43:03.297Z,10.40
2022-12-29T01:45:34.408Z,10.40
2022-12-29T01:53:37.186Z,10.50
2022-12-29T01:59:11.551Z,10.50
2022-12-29T02:01:41.849Z,10.60
2022-12-29T02:04:15.559Z,10.60
2022-12-29T02:31:59.564Z,10.80
2022-12-29T03:01:13.888Z,10.90
2022-12-29T03:09:27.269Z,10.90
2022-12-29T03:26:29.891Z,10.90
2022-12-29T03:28:58.785Z,10.90
2022-12-29T03:31:28.117Z,10.90
2022-12-29T03:45:29.855Z,11.00
2022-12-29T03:51:26.369Z,10.90
2022-12-29T03:59:41.160Z,10.80
2022-12-29T04:04:59.620Z,10.80
2022-12-29T04:10:42.018Z,10.80
2022-12-29T04:13:11.634Z,10.80
2022-12-29T04:15:42.650Z,10.80
2022-12-29T04:18:10.857Z,10.80
2022-12-29T04:20:56.839Z,10.80
2022-12-29T04:23:25.832Z,10.80
2022-12-29T04:25:54.082Z,10.80
2022-12-29T04:28:24.257Z,10.80
2022-12-29T04:30:56.991Z,10.80
2022-12-29T04:33:27.658Z,10.80
2022-12-29T04:35:56.565Z,10.80
2022-12-29T04:38:26.087Z,10.80
2022-12-29T04:40:54.307Z,10.80
2022-12-29T04:43:23.464Z,10.80
2022-12-29T04:45:57.513Z,10.80
2022-12-29T04:48:26.679Z,10.90
2022-12-29T04:50:56.821Z,10.90
2022-12-29T04:53:26.544Z,10.90
2022-12-29T04:55:55.489Z,10.90
2022-12-29T04:58:24.295Z,10.90
2022-12-29T05:00:54.310Z,11.00
2022-12-29T05:03:22.467Z,11.00
2022-12-29T05:05:51.075Z,11.00
2022-12-29T05:08:23.214Z,11.00
2022-12-29T05:10:56.463Z,11.00
2022-12-29T05:13:24.942Z,11.00
2022-12-29T05:15:55.652Z,11.00
2022-12-29T05:18:23.858Z,11.10
2022-12-29T05:23:45.078Z,11.00
2022-12-29T05:26:13.558Z,11.00
2022-12-29T05:28:44.194Z,11.00
2022-12-29T05:31:14.569Z,11.00
2022-12-29T05:33:44.546Z,11.00
2022-12-29T05:36:13.344Z,11.00
2022-12-29T05:38:42.658Z,11.00
2022-12-29T05:41:11.592Z,11.00
2022-12-29T05:43:39.714Z,10.90
2022-12-29T05:46:07.886Z,10.90
2022-12-29T05:48:38.246Z,10.90
2022-12-29T05:51:07.180Z,10.90
2022-12-29T05:53:36.010Z,10.90
2022-12-29T05:56:04.186Z,10.90
2022-12-29T05:58:32.463Z,10.90
2022-12-29T06:01:02.450Z,10.90
2022-12-29T06:03:31.348Z,10.90
2022-12-29T06:06:01.107Z,10.90
2022-12-29T06:08:29.273Z,10.90
2022-12-29T06:10:57.942Z,10.90
2022-12-29T06:13:26.231Z,10.80
2022-12-29T06:15:54.340Z,10.80
2022-12-29T06:18:25.028Z,10.70
2022-12-29T06:20:53.252Z,10.70
2022-12-29T06:23:22.799Z,10.70
2022-12-29T06:25:51.209Z,10.60
2022-12-29T06:28:19.400Z,10.70
2022-12-29T06:30:48.145Z,10.60
2022-12-29T06:33:17.613Z,10.60
2022-12-29T06:35:49.129Z,10.60
2022-12-29T06:38:18.711Z,10.70
2022-12-29T06:40:49.292Z,10.70
2022-12-29T06:43:19.767Z,10.80
2022-12-29T06:45:48.911Z,10.70
2022-12-29T06:48:17.249Z,10.70
2022-12-29T06:50:45.361Z,10.80
2022-12-29T06:53:14.239Z,10.80
2022-12-29T06:55:43.823Z,10.70
2022-12-29T06:58:13.278Z,10.70
2022-12-29T07:00:42.072Z,10.70
2022-12-29T07:03:10.622Z,10.70
2022-12-29T07:05:41.524Z,10.70
2022-12-29T07:08:11.900Z,10.60
2022-12-29T07:10:40.243Z,10.60
2022-12-29T07:13:09.178Z,10.60
2022-12-29T07:15:40.298Z,10.60
2022-12-29T07:18:09.122Z,10.60
2022-12-29T07:20:38.029Z,10.60
2022-12-29T07:23:06.266Z,10.60
2022-12-29T07:25:36.294Z,10.60
2022-12-29T07:28:05.645Z,10.50
2022-12-29T07:30:33.876Z,10.50
2022-12-29T07:33:07.060Z,10.60
2022-12-29T07:35:36.578Z,10.60
2022-12-29T07:38:05.068Z,10.50
2022-12-29T07:40:34.258Z,10.50
2022-12-29T07:43:11.425Z,10.50
2022-12-29T07:45:43.977Z,10.60
2022-12-29T07:50:59.601Z,10.60
2022-12-29T07:53:28.176Z,10.50
2022-12-29T07:55:57.022Z,10.50
2022-12-29T07:58:28.189Z,10.50
2022-12-29T08:01:01.319Z,10.40
2022-12-29T08:09:24.446Z,10.40
2022-12-29T08:14:34.874Z,10.30
2022-12-29T08:17:29.043Z,10.30
2022-12-29T08:35:18.110Z,10.40
2022-12-29T08:37:51.806Z,10.40
2022-12-29T08:40:20.461Z,10.40
2022-12-29T08:42:52.904Z,10.50
2022-12-29T08:53:24.966Z,10.50
2022-12-29T09:05:06.126Z,10.40
2022-12-29T09:15:38.407Z,10.40
2022-12-29T09:18:13.647Z,10.40
2022-12-29T09:29:16.216Z,10.40
2022-12-29T09:35:30.559Z,10.50
2022-12-29T09:38:00.415Z,10.50
2022-12-29T09:40:33.002Z,10.50
2022-12-29T09:43:34.777Z,10.60
2022-12-29T09:46:17.214Z,10.60
2022-12-29T09:48:49.722Z,10.60
2022-12-29T09:57:13.999Z,10.60
2022-12-29T10:15:09.413Z,10.60
2022-12-29T10:18:03.215Z,10.60
2022-12-29T10:26:42.891Z,10.60
2022-12-29T10:29:21.313Z,10.60
2022-12-29T10:32:11.552Z,10.70
2022-12-29T10:37:34.074Z,10.70
2022-12-29T10:40:16.768Z,10.80
2022-12-29T10:42:49.329Z,10.80
2022-12-29T10:45:27.491Z,10.80
2022-12-29T11:16:51.007Z,10.70
2022-12-29T11:28:30.745Z,10.90
2022-12-29T11:31:07.774Z,10.90
2022-12-29T11:33:38.860Z,10.90
2022-12-29T11:38:51.683Z,10.90
2022-12-29T11:44:00.458Z,11.00
2022-12-29T11:49:23.039Z,11.00
2022-12-29T11:51:58.870Z,11.00
2022-12-29T11:54:33.303Z,11.00
2022-12-29T11:57:15.325Z,11.00
2022-12-29T11:59:51.637Z,11.10
2022-12-29T12:02:43.076Z,11.10
2022-12-29T12:28:02.803Z,11.00
2022-12-29T12:33:26.823Z,10.90
2022-12-29T12:36:09.596Z,10.80
2022-12-29T12:38:44.906Z,10.60
2022-12-29T12:44:15.581Z,10.40
2022-12-29T12:47:16.460Z,10.30
2022-12-29T12:50:18.054Z,10.30
2022-12-29T12:53:06.324Z,10.20
2022-12-29T12:55:49.142Z,10.20
2022-12-29T12:58:30.318Z,10.10
2022-12-29T13:01:14.081Z,10.10
2022-12-29T13:03:52.428Z,10.10
2022-12-29T13:06:36.032Z,10.10
2022-12-29T13:09:32.637Z,10.10
2022-12-29T13:12:16.029Z,10.10
2022-12-29T13:14:57.379Z,10.10
2022-12-29T13:17:30.676Z,10.10
2022-12-29T13:20:04.573Z,10.20
2022-12-29T13:22:42.006Z,10.10
2022-12-29T13:25:27.067Z,10.10
2022-12-29T13:28:03.160Z,10.10
2022-12-29T13:30:42.003Z,10.10
2022-12-29T13:33:22.640Z,10.00
2022-12-29T13:36:01.728Z,10.00
2022-12-29T13:38:36.915Z,10.00
2022-12-29T13:41:10.229Z,10.10
2022-12-29T13:43:43.073Z,10.00
2022-12-29T13:46:19.521Z,10.00
2022-12-29T13:48:53.697Z,10.10
2022-12-29T13:51:27.763Z,10.00
2022-12-29T13:54:12.138Z,10.10
2022-12-29T13:56:43.519Z,10.10
2022-12-29T13:59:20.001Z,10.10
2022-12-29T14:01:56.501Z,10.20
2022-12-29T14:04:26.857Z,10.20
2022-12-29T14:07:06.576Z,10.20
2022-12-29T14:09:47.375Z,10.20
2022-12-29T14:12:33.453Z,10.10
2022-12-29T14:15:16.383Z,10.10
2022-12-29T14:17:46.420Z,10.10
2022-12-29T14:20:24.149Z,10.10
2022-12-29T14:23:00.456Z,10.10
2022-12-29T14:26:01.393Z,10.10
2022-12-29T14:28:31.341Z,10.10
2022-12-29T14:31:01.099Z,10.00
2022-12-29T14:33:33.434Z,10.00
2022-12-29T14:36:23.016Z,10.00
2022-12-29T14:38:51.357Z,10.00
2022-12-29T14:41:32.335Z,9.90
2022-12-29T14:44:04.509Z,9.90
2022-12-29T14:46:51.746Z,9.90
2022-12-29T14:49:25.883Z,9.90
2022-12-29T14:51:56.086Z,9.80
2022-12-29T14:54:45.225Z,9.90
2022-12-29T14:57:21.929Z,9.90
2022-12-29T14:59:56.813Z,9.90
2022-12-29T15:02:28.315Z,9.90
2022-12-29T15:05:02.945Z,9.90
2022-12-29T15:07:32.345Z,9.90
2022-12-29T15:10:07.336Z,9.80
2022-12-29T15:12:40.524Z,9.80
2022-12-29T15:15:24.564Z,9.80
2022-12-29T15:17:53.068Z,9.80
2022-12-29T15:20:30.087Z,9.70
2022-12-29T15:23:00.404Z,9.70
2022-12-29T15:25:28.830Z,9.70
2022-12-29T15:28:02.736Z,9.60
2022-12-29T15:30:31.217Z,9.60
2022-12-29T15:32:59.726Z,9.60
2022-12-29T15:35:32.972Z,9.60
2022-12-29T15:38:04.297Z,9.60
2022-12-29T15:40:34.187Z,9.60
2022-12-29T15:43:25.950Z,9.60
2022-12-29T15:45:56.169Z,9.60
2022-12-29T15:48:26.577Z,9.60
2022-12-29T15:50:56.590Z,9.60
2022-12-29T15:53:29.648Z,9.60
2022-12-29T15:56:03.457Z,9.50
2022-12-29T15:58:33.715Z,9.50
2022-12-29T16:01:03.724Z,9.50
2022-12-29T16:03:36.172Z,9.40
2022-12-29T16:06:12.992Z,9.30
2022-12-29T16:08:42.502Z,9.30
2022-12-29T16:11:25.107Z,9.30
2022-12-29T16:13:55.973Z,9.30
2022-12-29T16:16:29.534Z,9.30
2022-12-29T16:18:58.928Z,9.20
2022-12-29T16:21:33.679Z,9.20
2022-12-29T16:24:05.251Z,9.20
2022-12-29T16:26:33.585Z,9.20
2022-12-29T16:29:06.783Z,9.20
2022-12-29T16:31:38.192Z,9.20
2022-12-29T16:34:25.883Z,9.20
2022-12-29T16:37:00.170Z,9.20
2022-12-29T16:39:34.818Z,9.20
2022-12-29T16:42:25.749Z,9.20
2022-12-29T16:48:17.891Z,9.20
2022-12-29T16:50:47.516Z,9.10
2022-12-29T16:53:24.255Z,9.10
2022-12-29T16:55:54.036Z,9.10
2022-12-29T16:58:27.338Z,9.00
2022-12-29T17:00:57.788Z,9.00
2022-12-29T17:03:35.098Z,9.00
2022-12-29T17:06:05.338Z,9.00
2022-12-29T17:08:44.158Z,9.10
2022-12-29T17:11:42.340Z,9.10
2022-12-29T17:14:23.743Z,9.10
2022-12-29T17:16:54.456Z,9.10
2022-12-29T17:19:28.975Z,9.10
2022-12-29T17:21:57.409Z,9.10
2022-12-29T17:24:26.966Z,9.10
2022-12-29T17:26:58.589Z,9.00
2022-12-29T17:29:36.117Z,9.10
2022-12-29T17:32:10.264Z,9.10
2022-12-29T17:40:29.906Z,9.10
2022-12-29T17:42:58.320Z,9.10
2022-12-29T17:48:56.283Z,9.20
2022-12-29T17:54:17.572Z,9.20
2022-12-29T17:56:48.932Z,9.20
2022-12-29T17:59:18.506Z,9.20
2022-12-29T18:01:51.017Z,9.30
2022-12-29T18:04:22.033Z,9.30
2022-12-29T18:12:39.191Z,9.40
2022-12-29T18:18:15.580Z,9.40
2022-12-29T18:29:23.976Z,9.40
2022-12-29T18:31:53.740Z,9.50
2022-12-29T18:34:27.103Z,9.40
2022-12-29T18:36:55.752Z,9.40
2022-12-29T18:39:29.556Z,9.40
2022-12-29T18:41:58.178Z,9.40
2022-12-29T18:44:27.360Z,9.40
2022-12-29T18:52:16.249Z,9.30
2022-12-29T18:57:47.221Z,9.40
2022-12-29T19:00:17.667Z,9.40
2022-12-29T19:02:46.666Z,9.30
2022-12-29T19:05:23.711Z,9.30
2022-12-29T19:07:53.559Z,9.40
2022-12-29T19:10:23.376Z,9.30
2022-12-29T19:12:52.174Z,9.20
2022-12-29T19:15:24.048Z,9.10
2022-12-29T19:18:08.626Z,9.00
2022-12-29T19:20:43.003Z,9.00
2022-12-29T19:23:14.662Z,8.90
2022-12-29T19:25:44.466Z,8.90
2022-12-29T19:28:18.810Z,9.00
2022-12-29T19:30:51.938Z,9.10
2022-12-29T19:33:21.851Z,9.10
2022-12-29T19:35:50.480Z,9.20
2022-12-29T19:38:20.662Z,9.20
2022-12-29T19:40:52.783Z,9.20
2022-12-29T19:43:20.933Z,9.10
2022-12-29T19:45:49.152Z,9.10
2022-12-29T19:48:18.968Z,9.00
2022-12-29T19:50:47.528Z,8.90
2022-12-29T19:53:16.746Z,8.80
2022-12-29T19:55:47.121Z,8.70
2022-12-29T19:58:16.228Z,8.60
2022-12-29T20:00:45.182Z,8.60
2022-12-29T20:03:14.798Z,8.50
2022-12-29T20:05:43.026Z,8.40
2022-12-29T20:08:11.152Z,8.30
2022-12-29T20:10:39.308Z,8.20
2022-12-29T20:13:08.768Z,8.20
2022-12-29T20:15:37.062Z,8.20
2022-12-29T20:18:13.705Z,8.20
2022-12-29T20:20:42.700Z,8.20
2022-12-29T20:23:10.966Z,8.20
2022-12-29T20:25:47.486Z,8.20
2022-12-29T20:28:17.394Z,8.20
2022-12-29T20:30:45.658Z,8.20
2022-12-29T20:33:13.838Z,8.10
2022-12-29T20:35:42.091Z,8.10
2022-12-29T20:38:10.287Z,8.10
2022-12-29T20:40:45.963Z,8.10
2022-12-29T20:43:17.392Z,8.20
2022-12-29T20:45:46.064Z,8.20
2022-12-29T20:48:14.290Z,8.20
2022-12-29T20:50:42.777Z,8.30
2022-12-29T20:53:11.635Z,8.30
2022-12-29T20:55:41.144Z,8.40
2022-12-29T20:58:26.008Z,8.40
2022-12-29T21:00:56.742Z,8.40
2022-12-29T21:03:26.199Z,8.30
2022-12-29T21:05:55.355Z,8.30
2022-12-29T21:08:23.786Z,8.30
2022-12-29T21:10:52.714Z,8.30
2022-12-29T21:13:21.665Z,8.20
2022-12-29T21:15:50.143Z,8.20
2022-12-29T21:18:20.189Z,8.20
2022-12-29T21:21:00.830Z,8.20
2022-12-29T21:23:30.939Z,8.20
2022-12-29T21:26:00.245Z,8.10
2022-12-29T21:28:28.594Z,8.10
2022-12-29T21:30:56.889Z,8.10
2022-12-29T21:33:26.618Z,8.10
2022-12-29T21:35:55.734Z,8.00
2022-12-29T21:38:24.089Z,8.00
2022-12-29T21:40:52.311Z,8.00
2022-12-29T21:43:20.409Z,8.00
2022-12-29T21:45:50.267Z,8.10
2022-12-29T21:48:25.025Z,8.10
2022-12-29T21:51:14.113Z,8.10
2022-12-29T21:53:44.406Z,8.10
2022-12-29T21:56:17.220Z,8.10
2022-12-29T21:59:05.108Z,8.10
2022-12-29T22:01:53.708Z,8.10
2022-12-29T22:04:42.664Z,8.00
2022-12-29T22:07:31.731Z,8.00
2022-12-29T22:10:17.480Z,8.00
2022-12-29T22:13:01.268Z,8.00
2022-12-29T22:15:31.329Z,8.00
2022-12-29T22:18:00.987Z,8.00
2022-12-29T22:20:37.936Z,8.00
2022-12-29T22:23:09.937Z,8.00
2022-12-29T22:25:40.192Z,8.00
2022-12-29T22:28:10.379Z,8.00
2022-12-29T22:30:38.595Z,8.00
2022-12-29T22:33:07.473Z,8.00
2022-12-29T22:35:37.659Z,8.00
2022-12-29T22:38:07.521Z,8.00
2022-12-29T22:40:40.232Z,7.90
2022-12-29T22:43:13.423Z,7.90
2022-12-29T22:45:42.695Z,7.90
2022-12-29T22:48:11.696Z,7.90
2022-12-29T22:50:42.958Z,7.90
2022-12-29T22:53:11.338Z,8.00
2022-12-29T22:55:41.315Z,7.90
2022-12-29T22:58:09.494Z,7.90
2022-12-29T23:00:37.559Z,7.90
2022-12-29T23:03:09.076Z,7.90
2022-12-29T23:05:43.569Z,7.90
2022-12-29T23:08:11.883Z,7.90
2022-12-29T23:10:41.413Z,7.90
2022-12-29T23:13:09.529Z,7.80
2022-12-29T23:15:37.839Z,7.90
2022-12-29T23:18:06.092Z,7.90
2022-12-29T23:20:34.198Z,7.80
2022-12-29T23:23:02.363Z,7.80
2022-12-29T23:25:30.431Z,7.80
2022-12-29T23:28:00.237Z,7.90
2022-12-29T23:30:28.543Z,7.80
2022-12-29T23:32:56.667Z,7.90
2022-12-29T23:35:24.783Z,7.80
2022-12-29T23:37:53.346Z,7.80
2022-12-29T23:40:21.333Z,7.80
2022-12-29T23:42:49.532Z,7.80
2022-12-29T23:45:19.265Z,7.80
2022-12-29T23:47:47.258Z,7.80
2022-12-29T23:50:15.579Z,7.90
2022-12-29T23:52:43.776Z,7.90
2022-12-29T23:55:12.190Z,7.90
2022-12-29T23:57:40.348Z,7.90
